Time;durP1;ratioP1;P1;durP2;ratioP2;P2;SDS_P1;SDS_P2;PMS_P1;PMS_P2;Temp;Humidity;BMP_temperature;BMP_pressure;BME280_temperature;BME280_humidity;BME280_pressure;Samples;Min_cycle;Max_cycle;Signal;HPM_P1;HPM_P2
2023/07/24 00:00:40;;;;;;;14.68;6.85;;;16.60;99.90;;;;;;6185859;23;20087;-77
2023/07/24 00:03:06;;;;;;;18.63;7.35;;;16.60;99.90;;;;;;6186170;23;20017;-77
2023/07/24 00:05:31;;;;;;;14.13;7.53;;;16.60;99.90;;;;;;6159470;23;20028;-77
2023/07/24 00:07:57;;;;;;;13.75;6.85;;;16.60;99.90;;;;;;6161303;23;20009;-76
2023/07/24 00:10:23;;;;;;;17.30;7.05;;;16.60;99.90;;;;;;6161460;23;20108;-77
2023/07/24 00:12:52;;;;;;;14.43;6.25;;;16.50;99.90;;;;;;6161437;23;20027;-77
2023/07/24 00:15:17;;;;;;;15.80;6.82;;;16.50;99.90;;;;;;6161162;23;20017;-77
2023/07/24 00:17:43;;;;;;;17.30;6.47;;;16.50;99.90;;;;;;6161302;23;20159;-77
2023/07/24 00:20:09;;;;;;;13.93;6.28;;;16.50;99.90;;;;;;6176548;23;20016;-77
2023/07/24 00:22:34;;;;;;;14.00;7.05;;;16.50;99.90;;;;;;6187733;23;20508;-77
2023/07/24 00:25:01;;;;;;;13.73;6.38;;;16.40;99.90;;;;;;6160933;23;20349;-77
2023/07/24 00:27:27;;;;;;;12.60;5.80;;;16.50;99.90;;;;;;6161102;23;20031;-78
2023/07/24 00:29:53;;;;;;;13.93;6.50;;;16.50;99.90;;;;;;6187591;23;20079;-77
2023/07/24 00:32:18;;;;;;;14.88;6.70;;;16.50;99.90;;;;;;6161271;23;20330;-77
2023/07/24 00:34:44;;;;;;;14.02;6.10;;;16.50;99.90;;;;;;6161080;23;20073;-77
2023/07/24 00:37:10;;;;;;;15.90;6.43;;;16.50;99.90;;;;;;6187898;23;20036;-77
2023/07/24 00:39:35;;;;;;;13.68;6.28;;;16.50;99.90;;;;;;6161649;23;20013;-77
2023/07/24 00:42:01;;;;;;;16.17;6.13;;;16.50;99.90;;;;;;6161126;23;20028;-77
2023/07/24 00:44:27;;;;;;;13.05;5.80;;;16.50;99.90;;;;;;6161133;23;20017;-77
2023/07/24 00:46:53;;;;;;;17.05;5.85;;;16.50;99.90;;;;;;6187743;23;20068;-77
2023/07/24 00:49:19;;;;;;;18.70;6.53;;;16.40;99.90;;;;;;6187776;23;20119;-77
2023/07/24 00:51:46;;;;;;;16.90;5.93;;;16.50;99.90;;;;;;6187726;23;20013;-77
2023/07/24 00:54:16;;;;;;;14.00;6.18;;;16.40;99.90;;;;;;6187360;23;20028;-77
2023/07/24 00:56:42;;;;;;;20.60;6.30;;;16.40;99.90;;;;;;6187676;23;20087;-77
2023/07/24 00:59:08;;;;;;;14.85;6.07;;;16.40;99.90;;;;;;6187674;23;20017;-77
2023/07/24 01:01:34;;;;;;;12.48;6.25;;;16.40;99.90;;;;;;6160945;23;20072;-77
2023/07/24 01:04:02;;;;;;;12.88;5.60;;;16.50;99.90;;;;;;6161356;23;20045;-78
2023/07/24 01:06:29;;;;;;;13.02;6.07;;;16.50;99.90;;;;;;6161386;23;20017;-77
2023/07/24 01:08:54;;;;;;;14.82;5.72;;;16.50;99.90;;;;;;6187566;23;20021;-78
2023/07/24 01:11:28;;;;;;;16.17;5.72;;;16.50;99.90;;;;;;6160814;23;20021;-77
2023/07/24 01:14:04;;;;;;;14.43;5.88;;;16.50;99.90;;;;;;6187565;23;20048;-77
2023/07/24 01:16:39;;;;;;;13.82;5.18;;;16.60;99.90;;;;;;6187098;23;20337;-77
2023/07/24 01:19:23;;;;;;;13.23;5.70;;;16.50;99.90;;;;;;6186543;23;20056;-77
2023/07/24 01:22:18;;;;;;;13.07;5.38;;;16.60;99.90;;;;;;6160799;23;20461;-76
2023/07/24 01:25:13;;;;;;;10.38;4.95;;;16.60;99.90;;;;;;6160385;23;20017;-77
2023/07/24 01:27:46;;;;;;;12.90;5.05;;;16.50;99.90;;;;;;6160713;23;20025;-77
2023/07/24 01:30:13;;;;;;;12.95;5.47;;;16.60;99.90;;;;;;6187370;23;20020;-76
2023/07/24 01:32:39;;;;;;;11.00;5.20;;;16.60;99.90;;;;;;6187402;23;20017;-77
2023/07/24 01:35:06;;;;;;;15.05;5.50;;;16.60;99.90;;;;;;6160613;23;20024;-77
2023/07/24 01:37:34;;;;;;;13.70;5.70;;;16.60;99.90;;;;;;6160684;23;20028;-77
2023/07/24 01:40:00;;;;;;;9.40;4.85;;;16.60;99.90;;;;;;6186965;23;20017;-77
2023/07/24 01:42:29;;;;;;;11.93;5.13;;;16.60;99.90;;;;;;6187269;23;20017;-77
2023/07/24 01:44:55;;;;;;;14.27;5.25;;;16.60;99.90;;;;;;6187226;23;20013;-76
2023/07/24 01:47:22;;;;;;;14.88;5.60;;;16.60;99.90;;;;;;6160573;23;20021;-77
2023/07/24 01:49:48;;;;;;;14.52;5.20;;;16.60;99.90;;;;;;6160483;23;20032;-76
2023/07/24 01:52:14;;;;;;;14.82;5.65;;;16.60;99.90;;;;;;6160590;23;20013;-76
2023/07/24 01:54:39;;;;;;;12.10;4.82;;;16.60;99.90;;;;;;6160729;23;20021;-77
2023/07/24 01:57:05;;;;;;;13.20;5.72;;;16.60;99.90;;;;;;6160381;23;20353;-76
2023/07/24 01:59:31;;;;;;;12.57;5.25;;;16.60;99.90;;;;;;6160442;23;20009;-77
2023/07/24 02:01:57;;;;;;;13.50;5.47;;;16.60;99.90;;;;;;6186847;23;20020;-77
2023/07/24 02:04:22;;;;;;;15.23;5.97;;;16.60;99.90;;;;;;6187081;23;20013;-77
2023/07/24 02:06:49;;;;;;;11.73;5.60;;;16.60;99.90;;;;;;6160369;23;20052;-77
2023/07/24 02:09:20;;;;;;;13.15;5.63;;;16.70;99.90;;;;;;6160333;23;20017;-77
2023/07/24 02:11:46;;;;;;;11.45;5.93;;;16.70;99.90;;;;;;6160419;23;20025;-78
2023/07/24 02:14:13;;;;;;;15.40;6.82;;;16.60;99.90;;;;;;6186944;23;20083;-77
2023/07/24 02:16:39;;;;;;;16.77;7.05;;;16.60;99.90;;;;;;6160205;23;20437;-77
2023/07/24 02:19:05;;;;;;;15.35;6.65;;;16.70;99.90;;;;;;6160224;23;20021;-77
2023/07/24 02:21:31;;;;;;;15.60;6.47;;;16.60;99.90;;;;;;6186568;23;20025;-77
2023/07/24 02:23:57;;;;;;;14.23;6.68;;;16.60;99.90;;;;;;6159938;23;20017;-76
2023/07/24 02:26:25;;;;;;;19.73;7.72;;;16.60;99.90;;;;;;6160428;23;20334;-77
2023/07/24 02:28:50;;;;;;;14.57;7.40;;;16.60;99.90;;;;;;6186225;23;20445;-76
2023/07/24 02:31:16;;;;;;;15.32;7.28;;;16.70;99.90;;;;;;6160138;23;20089;-77
2023/07/24 02:33:42;;;;;;;21.20;7.70;;;16.70;99.90;;;;;;6160053;23;20017;-77
2023/07/24 02:36:07;;;;;;;19.20;8.07;;;16.70;99.90;;;;;;6159990;23;20025;-78
2023/07/24 02:38:33;;;;;;;21.10;7.85;;;16.70;99.90;;;;;;6160010;23;20455;-77
2023/07/24 02:40:58;;;;;;;20.17;7.53;;;16.70;99.90;;;;;;6184884;23;20017;-77
2023/07/24 02:43:24;;;;;;;16.15;7.75;;;16.70;99.90;;;;;;6159999;23;20021;-77
2023/07/24 02:45:50;;;;;;;22.40;8.15;;;16.70;99.90;;;;;;6160029;23;20433;-77
2023/07/24 02:48:15;;;;;;;16.40;8.25;;;16.70;99.90;;;;;;6186639;23;20017;-77
2023/07/24 02:50:41;;;;;;;16.25;7.43;;;16.70;99.90;;;;;;6159976;23;20493;-77
2023/07/24 02:53:07;;;;;;;13.80;7.47;;;16.70;99.90;;;;;;6159981;23;20017;-77
2023/07/24 02:55:32;;;;;;;19.65;7.93;;;16.70;99.90;;;;;;6186487;23;20500;-77
2023/07/24 02:57:58;;;;;;;17.80;7.70;;;16.70;99.90;;;;;;6159955;23;20017;-77
2023/07/24 03:00:24;;;;;;;14.75;8.32;;;16.80;99.90;;;;;;6186499;23;20020;-77
2023/07/24 03:02:50;;;;;;;17.75;8.15;;;16.80;99.90;;;;;;6159856;23;20016;-77
2023/07/24 03:05:15;;;;;;;15.43;7.32;;;16.80;99.90;;;;;;6186470;23;20148;-77
2023/07/24 03:07:41;;;;;;;16.10;7.88;;;16.80;99.90;;;;;;6186173;23;20057;-77
2023/07/24 03:10:07;;;;;;;17.20;8.27;;;16.70;99.90;;;;;;6159827;23;20340;-77
2023/07/24 03:12:33;;;;;;;15.63;8.02;;;16.70;99.90;;;;;;6186347;23;20021;-77
2023/07/24 03:14:59;;;;;;;16.77;7.82;;;16.70;99.90;;;;;;6185939;23;20044;-77
2023/07/24 03:17:24;;;;;;;14.68;7.57;;;16.80;99.90;;;;;;6159623;23;20021;-77
2023/07/24 03:19:50;;;;;;;17.90;8.35;;;16.80;99.90;;;;;;6159715;23;20024;-77
2023/07/24 03:22:16;;;;;;;18.05;8.02;;;16.70;99.90;;;;;;6160035;23;20100;-77
2023/07/24 03:24:43;;;;;;;15.68;7.57;;;16.80;99.90;;;;;;6186075;23;20016;-77
2023/07/24 03:27:08;;;;;;;13.20;6.80;;;16.70;99.90;;;;;;6186454;23;20021;-77
2023/07/24 03:29:34;;;;;;;17.38;6.65;;;16.80;99.90;;;;;;6160300;23;20013;-77
2023/07/24 03:32:00;;;;;;;17.85;7.93;;;16.80;99.90;;;;;;6159744;23;20342;-77
2023/07/24 03:34:25;;;;;;;15.02;7.25;;;16.80;99.90;;;;;;6159472;23;20013;-77
2023/07/24 03:36:51;;;;;;;17.52;8.35;;;16.80;99.90;;;;;;6159521;23;20028;-76
2023/07/24 03:39:17;;;;;;;16.63;6.95;;;16.80;99.90;;;;;;6159571;23;20071;-77
2023/07/24 03:41:42;;;;;;;19.77;7.50;;;16.80;99.90;;;;;;6186514;23;20028;-77
2023/07/24 03:44:08;;;;;;;20.15;8.35;;;16.80;99.90;;;;;;6185696;23;20420;-77
2023/07/24 03:46:34;;;;;;;19.75;7.95;;;16.70;99.90;;;;;;6185968;23;20028;-77
2023/07/24 03:49:00;;;;;;;14.60;6.95;;;16.80;99.90;;;;;;6159216;23;20021;-76
2023/07/24 03:51:26;;;;;;;17.30;8.65;;;16.80;99.90;;;;;;6158303;23;20020;-76
2023/07/24 03:53:52;;;;;;;14.43;7.35;;;16.70;99.90;;;;;;6158770;23;20484;-76
2023/07/24 03:56:17;;;;;;;16.77;7.68;;;16.80;99.90;;;;;;6159138;23;20013;-77
2023/07/24 03:58:43;;;;;;;17.38;7.78;;;16.80;99.90;;;;;;6185983;23;20076;-77
2023/07/24 04:01:09;;;;;;;14.23;7.68;;;16.80;99.90;;;;;;6186130;23;20449;-77
2023/07/24 04:03:35;;;;;;;19.08;7.95;;;16.80;99.90;;;;;;6159391;23;20095;-77
2023/07/24 04:06:01;;;;;;;14.40;7.28;;;16.80;99.90;;;;;;6159398;23;20393;-76
2023/07/24 04:08:27;;;;;;;18.90;7.10;;;16.80;99.90;;;;;;6159438;23;20009;-77
2023/07/24 04:10:53;;;;;;;14.43;7.40;;;16.80;99.90;;;;;;6159395;23;20036;-76
2023/07/24 04:13:18;;;;;;;15.60;7.68;;;16.80;99.90;;;;;;6186485;23;20017;-76
2023/07/24 04:15:44;;;;;;;16.98;7.32;;;16.80;99.90;;;;;;6185917;23;20064;-77
2023/07/24 04:18:10;;;;;;;15.30;6.35;;;16.80;99.90;;;;;;6159303;23;20397;-77
2023/07/24 04:20:37;;;;;;;15.10;6.68;;;16.80;99.90;;;;;;6159347;23;20017;-77
2023/07/24 04:23:02;;;;;;;16.02;6.43;;;16.80;99.90;;;;;;6159308;23;20045;-77
2023/07/24 04:25:29;;;;;;;15.38;6.28;;;16.80;99.90;;;;;;6185516;23;20021;-77
2023/07/24 04:27:55;;;;;;;15.90;5.90;;;16.80;99.90;;;;;;6159259;23;20025;-77
2023/07/24 04:30:21;;;;;;;15.73;6.15;;;16.80;99.90;;;;;;6159182;23;20151;-76
2023/07/24 04:32:49;;;;;;;14.88;6.00;;;16.80;99.90;;;;;;6159114;23;20018;-77
2023/07/24 04:35:15;;;;;;;12.48;5.95;;;16.80;99.90;;;;;;6159170;23;20021;-76
2023/07/24 04:37:40;;;;;;;14.75;5.60;;;16.80;99.90;;;;;;6155658;23;20386;-77
2023/07/24 04:40:12;;;;;;;16.65;5.40;;;16.80;99.90;;;;;;6159178;23;20021;-76
2023/07/24 04:42:37;;;;;;;14.07;5.75;;;16.80;99.90;;;;;;6159155;23;20060;-77
2023/07/24 04:45:04;;;;;;;14.05;5.53;;;16.80;99.90;;;;;;6159596;23;20021;-77
2023/07/24 04:47:29;;;;;;;15.38;5.70;;;16.80;99.90;;;;;;6159291;23;20040;-77
2023/07/24 04:49:55;;;;;;;15.65;6.18;;;16.80;99.90;;;;;;6159199;23;20369;-77
2023/07/24 04:52:20;;;;;;;14.00;5.20;;;16.80;99.90;;;;;;6159713;23;20021;-77
2023/07/24 04:54:46;;;;;;;13.98;6.07;;;16.80;99.90;;;;;;6187534;23;20024;-77
2023/07/24 04:57:12;;;;;;;18.77;6.25;;;16.80;99.90;;;;;;6187704;23;20017;-76
2023/07/24 04:59:37;;;;;;;14.15;5.78;;;16.70;99.90;;;;;;6160937;23;20342;-77
2023/07/24 05:02:03;;;;;;;10.05;5.32;;;16.80;99.90;;;;;;6160898;23;20032;-77
2023/07/24 05:04:29;;;;;;;11.73;5.50;;;16.80;99.90;;;;;;6160875;23;20020;-77
2023/07/24 05:06:54;;;;;;;15.07;6.05;;;16.80;99.90;;;;;;6160872;23;20017;-77
2023/07/24 05:09:20;;;;;;;16.13;5.28;;;16.90;99.90;;;;;;6187147;23;20457;-76
2023/07/24 05:11:45;;;;;;;13.82;5.95;;;16.90;99.90;;;;;;6187534;23;20045;-77
2023/07/24 05:14:11;;;;;;;18.77;5.35;;;16.90;99.90;;;;;;6160801;23;20023;-76
2023/07/24 05:16:39;;;;;;;20.02;6.57;;;16.90;99.90;;;;;;6160559;23;20021;-77
2023/07/24 05:19:08;;;;;;;13.63;5.47;;;16.90;99.90;;;;;;6187299;23;20106;-76
2023/07/24 05:21:33;;;;;;;17.35;5.55;;;16.90;99.90;;;;;;6187018;23;20357;-77
2023/07/24 05:23:59;;;;;;;15.75;6.35;;;16.90;99.90;;;;;;6160856;23;20021;-77
2023/07/24 05:26:25;;;;;;;13.93;5.65;;;16.90;99.90;;;;;;6160510;23;20013;-76
2023/07/24 05:28:52;;;;;;;17.83;5.70;;;16.90;99.90;;;;;;6187541;23;20025;-77
2023/07/24 05:31:18;;;;;;;14.88;5.90;;;17.00;99.90;;;;;;6187108;23;20020;-77
2023/07/24 05:33:44;;;;;;;15.70;5.20;;;17.00;99.90;;;;;;6160614;23;20028;-76
2023/07/24 05:36:09;;;;;;;16.88;5.93;;;17.00;99.90;;;;;;6160496;23;20017;-77
2023/07/24 05:38:35;;;;;;;13.40;5.88;;;17.00;99.90;;;;;;6160648;23;20045;-77
2023/07/24 05:41:03;;;;;;;18.52;5.95;;;16.90;99.90;;;;;;6187331;23;20093;-77
2023/07/24 05:43:30;;;;;;;15.50;6.05;;;17.00;99.90;;;;;;6160557;23;20100;-77
2023/07/24 05:45:57;;;;;;;15.15;5.85;;;17.00;99.90;;;;;;6160617;23;20441;-77
2023/07/24 05:48:25;;;;;;;15.95;6.15;;;17.00;99.90;;;;;;6160313;23;20120;-77
2023/07/24 05:50:51;;;;;;;15.65;5.70;;;17.00;99.90;;;;;;6160536;23;20398;-77
2023/07/24 05:53:17;;;;;;;14.98;6.47;;;17.00;99.90;;;;;;6160369;23;20028;-77
2023/07/24 05:55:43;;;;;;;17.70;6.45;;;17.00;99.90;;;;;;6186993;23;20020;-77
2023/07/24 05:58:09;;;;;;;13.55;5.70;;;17.10;99.90;;;;;;6160364;23;20017;-76
2023/07/24 06:00:36;;;;;;;14.25;6.35;;;17.10;99.90;;;;;;6160347;23;20021;-78
2023/07/24 06:03:05;;;;;;;14.63;6.03;;;17.30;99.90;;;;;;6160429;23;20031;-77
2023/07/24 06:05:30;;;;;;;15.35;5.60;;;17.50;99.90;;;;;;6160141;23;20052;-78
2023/07/24 06:07:56;;;;;;;15.55;5.47;;;17.70;99.90;;;;;;6160251;23;20017;-78
2023/07/24 06:10:21;;;;;;;14.13;5.43;;;17.90;99.90;;;;;;6160359;23;20021;-77
2023/07/24 06:12:47;;;;;;;10.77;5.20;;;18.00;99.90;;;;;;6186560;23;20009;-77
2023/07/24 06:15:13;;;;;;;17.75;6.47;;;18.20;99.90;;;;;;6160235;23;20029;-78
2023/07/24 06:17:41;;;;;;;15.10;5.38;;;18.20;99.90;;;;;;6160387;23;20017;-77
2023/07/24 06:20:07;;;;;;;15.50;5.60;;;18.30;99.90;;;;;;6160220;23;20104;-77
2023/07/24 06:22:36;;;;;;;14.07;6.32;;;18.40;99.90;;;;;;6186570;23;20441;-78
2023/07/24 06:25:03;;;;;;;13.45;4.90;;;18.50;99.90;;;;;;6186591;23;20024;-78
2023/07/24 06:27:29;;;;;;;13.77;5.30;;;18.50;99.90;;;;;;6186663;23;20333;-76
2023/07/24 06:29:54;;;;;;;13.40;5.50;;;18.50;99.90;;;;;;6159995;23;20442;-77
2023/07/24 06:32:20;;;;;;;14.95;5.72;;;18.50;99.90;;;;;;6160060;23;20028;-77
2023/07/24 06:34:45;;;;;;;17.02;5.57;;;18.60;99.90;;;;;;6159930;23;20089;-77
2023/07/24 06:37:11;;;;;;;14.90;6.03;;;18.70;99.90;;;;;;6160107;23;20060;-77
2023/07/24 06:39:36;;;;;;;11.50;5.20;;;18.90;99.90;;;;;;6159973;23;20044;-77
2023/07/24 06:42:05;;;;;;;16.90;6.55;;;18.80;99.90;;;;;;6186518;23;20025;-77
2023/07/24 06:44:31;;;;;;;13.68;5.53;;;18.80;99.90;;;;;;6186450;23;20084;-77
2023/07/24 06:46:56;;;;;;;12.80;5.55;;;18.90;99.90;;;;;;6160428;23;20410;-77
2023/07/24 06:49:22;;;;;;;11.93;6.25;;;18.80;99.90;;;;;;6159917;23;20017;-78
2023/07/24 06:51:47;;;;;;;14.98;5.82;;;18.70;99.90;;;;;;6159808;23;20024;-77
2023/07/24 06:54:13;;;;;;;16.20;6.40;;;18.70;99.90;;;;;;6186172;23;20025;-77
2023/07/24 06:56:39;;;;;;;11.95;6.22;;;18.70;99.90;;;;;;6159698;23;20013;-76
2023/07/24 06:59:04;;;;;;;16.80;7.00;;;18.70;99.90;;;;;;6186078;23;20021;-76
2023/07/24 07:01:30;;;;;;;15.70;6.60;;;18.80;99.90;;;;;;6158720;23;20013;-75
2023/07/24 07:03:55;;;;;;;15.77;6.40;;;18.90;99.90;;;;;;6159522;23;20025;-75
2023/07/24 07:06:21;;;;;;;16.15;6.30;;;19.00;99.90;;;;;;6159604;23;20021;-75
2023/07/24 07:08:47;;;;;;;16.35;6.93;;;19.00;99.90;;;;;;6159533;23;20021;-75
2023/07/24 07:11:12;;;;;;;11.38;6.22;;;19.00;99.90;;;;;;6159602;23;20021;-75
2023/07/24 07:13:40;;;;;;;12.18;5.82;;;19.00;99.90;;;;;;6159318;23;20025;-75
2023/07/24 07:16:06;;;;;;;16.90;7.13;;;19.10;99.90;;;;;;6185278;23;20035;-75
2023/07/24 07:18:32;;;;;;;16.35;6.68;;;19.00;99.90;;;;;;6186162;23;20460;-74
2023/07/24 07:20:57;;;;;;;14.30;6.30;;;19.00;99.90;;;;;;6159506;23;20445;-75
2023/07/24 07:23:23;;;;;;;16.85;6.95;;;18.90;99.90;;;;;;6159402;23;20087;-76
2023/07/24 07:25:51;;;;;;;15.38;6.40;;;18.90;99.90;;;;;;6159152;23;20028;-76
2023/07/24 07:28:18;;;;;;;14.07;6.47;;;18.90;99.90;;;;;;6185959;23;20017;-76
2023/07/24 07:30:44;;;;;;;16.48;6.40;;;18.90;99.90;;;;;;6159375;23;20500;-75
2023/07/24 07:33:10;;;;;;;15.75;6.35;;;18.90;99.90;;;;;;6185981;23;20010;-75
2023/07/24 07:35:36;;;;;;;13.85;6.40;;;19.00;99.90;;;;;;6159320;23;20337;-75
2023/07/24 07:38:03;;;;;;;13.68;6.50;;;19.00;99.90;;;;;;6159177;23;20021;-75
2023/07/24 07:40:28;;;;;;;19.75;6.80;;;19.10;99.90;;;;;;6186021;23;20016;-76
2023/07/24 07:42:55;;;;;;;16.25;6.70;;;19.10;99.90;;;;;;6185826;23;20489;-76
2023/07/24 07:45:22;;;;;;;13.35;6.30;;;19.10;99.90;;;;;;6159342;23;20116;-75
2023/07/24 07:47:47;;;;;;;15.98;6.60;;;19.20;99.90;;;;;;6159201;23;20013;-74
2023/07/24 07:50:13;;;;;;;12.57;6.30;;;19.10;99.90;;;;;;6159457;23;20041;-75
2023/07/24 07:52:39;;;;;;;12.07;5.95;;;19.10;99.90;;;;;;6159282;23;20028;-75
2023/07/24 07:55:08;;;;;;;16.08;6.65;;;19.10;99.90;;;;;;6159488;23;20044;-76
2023/07/24 07:57:37;;;;;;;13.23;6.18;;;19.10;99.90;;;;;;6185578;23;20028;-75
2023/07/24 08:00:05;;;;;;;16.35;6.55;;;19.10;99.90;;;;;;6159183;23;20013;-76
2023/07/24 08:02:31;;;;;;;13.23;6.10;;;19.30;99.90;;;;;;6185865;23;20021;-75
2023/07/24 08:04:57;;;;;;;13.82;6.32;;;19.30;99.90;;;;;;6185265;23;20039;-76
2023/07/24 08:07:23;;;;;;;17.35;6.47;;;19.40;99.90;;;;;;6159282;23;20063;-75
2023/07/24 08:09:49;;;;;;;12.65;5.93;;;19.40;99.90;;;;;;6159042;23;20075;-77
2023/07/24 08:12:14;;;;;;;13.70;7.30;;;19.50;99.90;;;;;;6185890;23;20021;-74
2023/07/24 08:14:40;;;;;;;12.20;6.30;;;19.50;99.90;;;;;;6185409;23;20021;-79
2023/07/24 08:17:06;;;;;;;12.52;6.13;;;19.40;99.90;;;;;;6185741;23;20013;-75
2023/07/24 08:19:31;;;;;;;16.27;6.78;;;19.50;99.90;;;;;;6159125;23;20096;-75
2023/07/24 08:21:57;;;;;;;14.73;6.72;;;19.40;99.90;;;;;;6159125;23;20017;-76
2023/07/24 08:24:23;;;;;;;14.73;6.22;;;19.50;99.90;;;;;;6159131;23;20456;-76
2023/07/24 08:26:50;;;;;;;14.68;6.88;;;19.60;99.90;;;;;;6185280;23;20013;-76
2023/07/24 08:29:15;;;;;;;13.40;7.00;;;19.60;99.90;;;;;;6160895;23;20060;-75
2023/07/24 08:31:44;;;;;;;16.10;6.35;;;19.80;99.90;;;;;;6161062;23;20056;-75
2023/07/24 08:34:09;;;;;;;14.52;6.78;;;19.90;99.90;;;;;;6160971;23;20096;-75
2023/07/24 08:36:37;;;;;;;12.80;6.07;;;20.20;99.90;;;;;;6187526;23;20400;-76
2023/07/24 08:39:03;;;;;;;13.27;6.63;;;20.50;99.90;;;;;;6160862;23;20017;-75
2023/07/24 08:41:29;;;;;;;11.20;6.72;;;20.60;99.90;;;;;;6160833;23;20017;-75
2023/07/24 08:43:55;;;;;;;13.18;6.63;;;20.70;99.90;;;;;;6187144;23;20381;-75
2023/07/24 08:46:21;;;;;;;16.85;6.30;;;20.80;99.90;;;;;;6187206;23;20013;-75
2023/07/24 08:48:47;;;;;;;15.85;7.05;;;20.70;99.90;;;;;;6187176;23;20483;-76
2023/07/24 08:51:18;;;;;;;11.15;5.45;;;20.70;99.90;;;;;;6187115;23;20088;-75
2023/07/24 08:53:44;;;;;;;9.65;4.70;;;20.60;99.90;;;;;;6160655;23;20017;-75
2023/07/24 08:56:12;;;;;;;14.00;5.72;;;20.70;99.90;;;;;;6186970;23;20013;-76
2023/07/24 08:58:41;;;;;;;13.98;4.95;;;20.30;99.90;;;;;;6160747;23;20020;-76
2023/07/24 09:01:08;;;;;;;17.05;4.55;;;20.00;99.90;;;;;;6160627;23;20082;-76
2023/07/24 09:03:34;;;;;;;7.93;3.80;;;20.00;99.90;;;;;;6160675;23;20035;-75
2023/07/24 09:06:03;;;;;;;10.35;3.28;;;19.70;99.90;;;;;;6160566;23;20104;-75
2023/07/24 09:08:35;;;;;;;19.88;5.18;;;19.50;99.90;;;;;;6160701;23;20445;-74
2023/07/24 09:11:02;;;;;;;16.05;5.10;;;19.30;99.90;;;;;;6160584;23;20023;-76
2023/07/24 09:13:29;;;;;;;18.27;7.63;;;19.10;99.90;;;;;;6160597;23;20075;-83
2023/07/24 09:15:55;;;;;;;16.63;6.88;;;18.90;99.90;;;;;;6160433;23;20028;-75
2023/07/24 09:18:20;;;;;;;11.05;6.05;;;18.70;99.90;;;;;;6160589;23;20021;-74
2023/07/24 09:20:47;;;;;;;12.23;5.63;;;18.40;99.90;;;;;;6160364;23;20028;-75
2023/07/24 09:23:25;;;;;;;11.70;6.22;;;18.50;99.90;;;;;;6160854;23;20088;-75
2023/07/24 09:25:50;;;;;;;12.35;6.10;;;18.40;99.90;;;;;;6186783;23;20043;-74
2023/07/24 09:28:17;;;;;;;10.25;6.43;;;18.50;99.90;;;;;;6186702;23;20032;-74
2023/07/24 09:30:52;;;;;;;14.60;7.35;;;18.60;99.90;;;;;;6160384;23;20052;-75
2023/07/24 09:33:18;;;;;;;16.25;7.93;;;18.70;99.90;;;;;;6186615;23;20346;-75
2023/07/24 09:35:43;;;;;;;14.60;8.35;;;18.80;99.90;;;;;;6186970;23;20027;-76
2023/07/24 09:38:12;;;;;;;12.77;8.45;;;18.90;99.90;;;;;;6160278;23;20450;-75
2023/07/24 09:40:43;;;;;;;16.25;7.80;;;19.00;99.90;;;;;;6160067;23;20013;-75
2023/07/24 09:43:19;;;;;;;13.48;7.97;;;19.00;99.90;;;;;;6160407;23;20021;-75
2023/07/24 09:45:48;;;;;;;14.88;7.82;;;19.00;99.90;;;;;;6160232;23;20175;-75
2023/07/24 09:48:16;;;;;;;11.70;7.70;;;19.00;99.90;;;;;;6186484;23;20537;-75
2023/07/24 09:50:42;;;;;;;11.80;8.10;;;19.00;99.90;;;;;;6187016;23;20023;-76
2023/07/24 09:53:29;;;;;;;13.90;8.95;;;18.90;99.90;;;;;;6160211;23;20075;-75
2023/07/24 09:56:01;;;;;;;13.55;8.52;;;19.10;99.90;;;;;;6186861;23;20017;-79
2023/07/24 09:58:29;;;;;;;13.07;8.93;;;19.30;99.90;;;;;;6160145;23;20455;-74
2023/07/24 10:00:56;;;;;;;14.90;8.30;;;19.60;99.90;;;;;;6160136;23;20052;-75
2023/07/24 10:03:22;;;;;;;9.15;6.43;;;19.60;99.90;;;;;;6159802;23;20378;-74
2023/07/24 10:05:49;;;;;;;6.35;5.38;;;19.40;99.90;;;;;;6160114;23;20017;-75
2023/07/24 10:08:19;;;;;;;7.70;5.35;;;19.20;99.90;;;;;;6160029;23;20099;-75
2023/07/24 10:10:45;;;;;;;10.02;5.90;;;19.00;99.90;;;;;;6159988;23;20028;-75
2023/07/24 10:13:14;;;;;;;7.28;5.13;;;19.00;99.90;;;;;;6160035;23;20020;-75
2023/07/24 10:15:42;;;;;;;7.53;6.35;;;18.90;99.90;;;;;;6186488;23;20021;-75
2023/07/24 10:18:09;;;;;;;8.00;5.68;;;19.10;99.90;;;;;;6159880;23;20327;-75
2023/07/24 10:20:39;;;;;;;11.10;7.88;;;19.40;99.90;;;;;;6186321;23;20346;-75
2023/07/24 10:23:07;;;;;;;7.82;5.10;;;19.50;99.90;;;;;;6159909;23;20021;-75
2023/07/24 10:25:35;;;;;;;6.32;5.22;;;19.50;99.90;;;;;;6159599;23;20059;-75
2023/07/24 10:28:07;;;;;;;8.60;5.50;;;19.70;99.90;;;;;;6159743;23;20040;-74
2023/07/24 10:30:35;;;;;;;7.90;5.35;;;19.80;99.90;;;;;;6186391;23;20017;-75
2023/07/24 10:33:06;;;;;;;7.53;5.50;;;19.90;99.90;;;;;;6159719;23;20068;-75
2023/07/24 10:35:43;;;;;;;7.20;5.30;;;19.80;99.90;;;;;;6159701;23;20064;-75
2023/07/24 10:38:10;;;;;;;7.47;5.43;;;19.90;99.90;;;;;;6159762;23;20029;-74
2023/07/24 10:40:36;;;;;;;7.25;5.97;;;19.80;99.90;;;;;;6160040;23;20009;-74
2023/07/24 10:43:10;;;;;;;7.22;5.63;;;19.70;99.90;;;;;;6159759;23;20021;-75
2023/07/24 10:45:49;;;;;;;7.32;5.15;;;19.80;99.90;;;;;;6159693;23;20016;-74
2023/07/24 10:48:16;;;;;;;7.13;4.93;;;19.80;99.90;;;;;;6159494;23;20032;-74
2023/07/24 10:50:44;;;;;;;7.88;5.32;;;19.70;99.90;;;;;;6159642;23;20013;-74
2023/07/24 10:53:11;;;;;;;10.73;5.28;;;19.50;99.90;;;;;;6159721;23;20020;-75
2023/07/24 10:55:37;;;;;;;7.05;5.35;;;19.50;99.90;;;;;;6159558;23;20053;-75
2023/07/24 10:58:03;;;;;;;9.90;5.10;;;19.40;99.90;;;;;;6159716;23;20017;-74
2023/07/24 11:00:31;;;;;;;8.40;5.45;;;19.30;99.90;;;;;;6185853;23;20332;-74
2023/07/24 11:02:57;;;;;;;7.30;5.28;;;19.30;99.90;;;;;;6186032;23;20017;-74
2023/07/24 11:05:23;;;;;;;6.10;5.07;;;19.30;99.90;;;;;;6159531;23;20017;-74
2023/07/24 11:07:49;;;;;;;7.93;4.30;;;19.40;99.90;;;;;;6186278;23;20017;-79
2023/07/24 11:10:19;;;;;;;11.30;5.10;;;19.60;99.90;;;;;;6159307;23;20099;-79
2023/07/24 11:12:45;;;;;;;7.53;5.20;;;19.50;99.90;;;;;;6185917;23;20326;-79
2023/07/24 11:15:12;;;;;;;7.25;4.60;;;19.40;99.90;;;;;;6186043;23;20488;-80
2023/07/24 11:17:40;;;;;;;7.28;4.45;;;19.40;99.90;;;;;;6186032;23;20023;-77
2023/07/24 11:20:13;;;;;;;6.03;4.10;;;19.60;99.90;;;;;;6185459;23;20373;-73
2023/07/24 11:22:43;;;;;;;6.28;3.92;;;19.50;99.90;;;;;;6159471;23;20096;-74
2023/07/24 11:25:28;;;;;;;6.72;4.68;;;19.70;99.90;;;;;;6159249;23;20441;-74
2023/07/24 11:27:56;;;;;;;5.88;3.85;;;19.90;99.90;;;;;;6158912;23;20074;-74
2023/07/24 11:30:22;;;;;;;6.70;4.10;;;20.10;99.90;;;;;;6159094;23;20349;-74
2023/07/24 11:32:49;;;;;;;6.30;3.88;;;20.20;99.90;;;;;;6159402;23;20017;-74
2023/07/24 11:35:15;;;;;;;7.07;3.63;;;20.30;99.90;;;;;;6159039;23;20115;-74
2023/07/24 11:37:43;;;;;;;4.68;3.67;;;20.40;99.90;;;;;;6158263;23;20480;-75
2023/07/24 11:40:10;;;;;;;6.15;4.20;;;20.20;99.90;;;;;;6159166;23;20424;-74
2023/07/24 11:42:40;;;;;;;4.13;3.60;;;20.20;99.90;;;;;;6159199;23;20017;-74
2023/07/24 11:45:09;;;;;;;5.22;3.80;;;20.10;99.90;;;;;;6159138;23;20017;-74
2023/07/24 11:47:49;;;;;;;4.30;3.10;;;20.20;99.90;;;;;;6159252;23;20029;-75
2023/07/24 11:50:15;;;;;;;4.70;2.08;;;20.40;99.90;;;;;;6159259;23;20021;-75
2023/07/24 11:52:43;;;;;;;2.63;1.55;;;20.50;99.90;;;;;;6159218;23;20053;-75
2023/07/24 11:55:13;;;;;;;2.85;1.40;;;20.60;99.90;;;;;;6159203;23;20028;-75
2023/07/24 11:57:39;;;;;;;5.47;1.50;;;20.60;99.90;;;;;;6159463;23;20017;-74
2023/07/24 12:00:06;;;;;;;4.75;1.50;;;20.70;99.90;;;;;;6159172;23;20021;-75
2023/07/24 12:02:33;;;;;;;4.78;1.60;;;20.80;99.90;;;;;;6159682;23;20075;-73
2023/07/24 12:04:59;;;;;;;3.13;1.35;;;20.80;99.90;;;;;;6187571;23;20442;-74
2023/07/24 12:07:33;;;;;;;4.43;1.85;;;20.80;99.90;;;;;;6161145;23;20025;-74
2023/07/24 12:10:04;;;;;;;3.88;1.92;;;20.70;99.90;;;;;;6187340;23;20374;-76
2023/07/24 12:12:40;;;;;;;4.75;1.60;;;20.80;99.90;;;;;;6160799;23;20016;-78
2023/07/24 12:15:09;;;;;;;2.88;1.10;;;20.70;99.90;;;;;;6160882;23;20473;-75
2023/07/24 12:17:35;;;;;;;2.83;1.10;;;20.70;99.90;;;;;;6160943;23;20028;-73
2023/07/24 12:20:08;;;;;;;4.30;1.20;;;20.60;99.90;;;;;;6161008;23;20101;-74
2023/07/24 12:22:34;;;;;;;3.90;1.10;;;20.50;99.90;;;;;;6160984;23;20017;-74
2023/07/24 12:25:06;;;;;;;4.68;1.05;;;20.40;99.90;;;;;;6187225;23;20393;-74
2023/07/24 12:27:34;;;;;;;3.55;1.23;;;20.40;99.90;;;;;;6160962;23;20029;-75
2023/07/24 12:30:00;;;;;;;7.63;2.25;;;20.50;99.90;;;;;;6161118;23;20020;-76
2023/07/24 12:32:26;;;;;;;4.25;1.17;;;20.70;99.90;;;;;;6160768;23;20025;-78
2023/07/24 12:34:52;;;;;;;3.25;1.30;;;20.70;99.90;;;;;;6160842;23;20020;-75
2023/07/24 12:37:18;;;;;;;4.60;1.38;;;20.80;99.90;;;;;;6160920;23;20107;-75